Time;durP1;ratioP1;P1;durP2;ratioP2;P2;SDS_P1;SDS_P2;PMS_P1;PMS_P2;Temp;Humidity;BMP_temperature;BMP_pressure;BME280_temperature;BME280_humidity;BME280_pressure;Samples;Min_cycle;Max_cycle;Signal;HPM_P1;HPM_P2
2023/08/19 00:01:03;;;;;;;;;20.67;19.00;;;;;30.13;100.00;100694.97;5079050;27;45372;-75
2023/08/19 00:03:28;;;;;;;;;18.00;18.00;;;;;30.14;100.00;100695.84;5079414;27;45397;-76
2023/08/19 00:05:54;;;;;;;;;17.00;17.00;;;;;30.18;100.00;100703.69;5086205;27;45240;-75
2023/08/19 00:08:19;;;;;;;;;20.33;19.00;;;;;30.17;100.00;100701.09;5079189;27;71568;-75
2023/08/19 00:10:45;;;;;;;;;20.00;17.33;;;;;30.22;100.00;100702.50;5085699;27;45298;-74
2023/08/19 00:13:10;;;;;;;;;19.00;19.00;;;;;30.19;100.00;100699.09;5081922;27;54829;-74
2023/08/19 00:15:35;;;;;;;;;17.67;16.67;;;;;30.17;100.00;100699.22;5087468;27;45441;-75
2023/08/19 00:18:01;;;;;;;;;20.00;18.00;;;;;30.12;100.00;100701.41;5078815;27;66500;-75
2023/08/19 00:20:29;;;;;;;;;20.33;20.33;;;;;30.05;100.00;100705.53;5088583;27;45341;-74
2023/08/19 00:22:58;;;;;;;;;21.33;20.00;;;;;30.06;100.00;100717.31;5079155;27;45366;-75
2023/08/19 00:25:24;;;;;;;;;20.67;20.67;;;;;30.04;100.00;100714.66;5087298;27;45519;-75
2023/08/19 00:27:51;;;;;;;;;18.67;16.67;;;;;30.00;100.00;100721.34;5077547;27;47416;-75
2023/08/19 00:30:16;;;;;;;;;20.67;16.67;;;;;30.02;100.00;100724.81;5084725;27;45498;-74
2023/08/19 00:32:41;;;;;;;;;18.67;18.67;;;;;30.04;100.00;100725.56;5078302;27;55267;-75
2023/08/19 00:35:07;;;;;;;;;21.67;18.00;;;;;30.02;100.00;100732.97;5080980;27;61306;-75
2023/08/19 00:37:32;;;;;;;;;18.67;17.00;;;;;29.99;100.00;100723.19;5078596;27;47412;-75
2023/08/19 00:39:58;;;;;;;;;20.33;20.00;;;;;29.98;100.00;100731.47;5076888;27;69561;-74
2023/08/19 00:42:23;;;;;;;;;21.00;16.33;;;;;29.97;100.00;100729.72;5084719;27;45567;-74
2023/08/19 00:44:48;;;;;;;;;19.67;17.67;;;;;29.99;100.00;100731.38;5088963;27;45188;-75
2023/08/19 00:47:14;;;;;;;;;19.67;19.67;;;;;30.01;100.00;100723.94;5078819;27;46361;-75
2023/08/19 00:49:40;;;;;;;;;19.33;19.33;;;;;29.99;100.00;100733.22;5082012;27;56623;-75
2023/08/19 00:52:06;;;;;;;;;19.67;19.00;;;;;29.98;100.00;100728.72;5079464;27;45275;-75
2023/08/19 00:54:31;;;;;;;;;17.67;17.67;;;;;30.01;100.00;100728.53;5076693;27;45545;-75
2023/08/19 00:56:56;;;;;;;;;21.67;20.33;;;;;29.96;100.00;100725.25;5056441;27;47295;-75
2023/08/19 00:59:22;;;;;;;;;18.67;17.00;;;;;29.95;100.00;100731.69;5075530;28;65873;-74
2023/08/19 01:01:47;;;;;;;;;16.00;15.33;;;;;29.93;100.00;100722.75;5055230;28;61941;-75
2023/08/19 01:04:13;;;;;;;;;16.67;16.67;;;;;29.89;100.00;100737.59;5076471;28;45471;-75
2023/08/19 01:06:45;;;;;;;;;18.33;17.00;;;;;29.85;100.00;100728.75;5068657;28;66469;-74
2023/08/19 01:09:29;;;;;;;;;21.67;18.67;;;;;29.85;100.00;100736.06;5076753;27;45392;-74
2023/08/19 01:12:00;;;;;;;;;20.67;16.00;;;;;29.81;100.00;100727.22;5071492;28;45534;-75
2023/08/19 01:14:44;;;;;;;;;15.00;15.00;;;;;29.83;100.00;100732.53;5073461;28;45284;-74
2023/08/19 01:17:13;;;;;;;;;17.33;15.00;;;;;29.83;100.00;100733.44;5058430;28;46597;-75
2023/08/19 01:19:41;;;;;;;;;16.33;14.00;;;;;29.93;100.00;100730.91;5056518;28;45346;-75
2023/08/19 01:22:09;;;;;;;;;16.00;15.00;;;;;29.92;100.00;100740.06;5059479;28;45309;-75
2023/08/19 01:24:35;;;;;;;;;15.00;15.00;;;;;29.95;100.00;100739.88;5055875;28;45407;-75
2023/08/19 01:27:05;;;;;;;;;15.00;13.33;;;;;29.97;100.00;100746.06;5066658;28;46974;-74
2023/08/19 01:29:31;;;;;;;;;17.00;16.00;;;;;29.91;100.00;100751.94;5074443;27;45308;-76
2023/08/19 01:31:56;;;;;;;;;15.67;14.00;;;;;29.93;100.00;100741.81;5074311;28;45451;-75
2023/08/19 01:34:24;;;;;;;;;14.00;14.00;;;;;29.91;100.00;100750.09;5074825;28;45533;-76
2023/08/19 01:36:57;;;;;;;;;15.00;13.33;;;;;30.04;100.00;100760.97;5056996;28;47427;-76
2023/08/19 01:39:23;;;;;;;;;12.00;12.00;;;;;29.94;100.00;100759.91;5058313;28;45383;-76
2023/08/19 01:41:49;;;;;;;;;15.67;14.33;;;;;29.92;100.00;100761.84;5071670;28;64997;-74
2023/08/19 01:44:15;;;;;;;;;17.33;17.33;;;;;29.93;100.00;100763.59;5055942;28;52456;-75
2023/08/19 01:46:40;;;;;;;;;14.67;13.67;;;;;29.94;100.00;100768.06;5054770;28;46404;-75
2023/08/19 01:49:05;;;;;;;;;18.33;15.00;;;;;29.92;100.00;100761.84;5074402;28;62099;-74
2023/08/19 01:51:30;;;;;;;;;15.33;15.33;;;;;29.96;100.00;100772.41;5074087;28;62602;-74
2023/08/19 01:53:56;;;;;;;;;14.67;13.33;;;;;29.92;100.00;100770.03;5070097;28;45269;-74
2023/08/19 01:56:21;;;;;;;;;15.67;14.67;;;;;29.92;100.00;100768.16;5074758;28;69502;-74
2023/08/19 01:58:46;;;;;;;;;16.00;13.00;;;;;29.89;100.00;100772.97;5070386;28;66139;-74
2023/08/19 02:01:12;;;;;;;;;15.33;15.33;;;;;29.94;100.00;100768.06;5072548;28;64024;-74
2023/08/19 02:03:38;;;;;;;;;16.67;15.33;;;;;29.90;100.00;100775.59;5074242;28;45268;-75
2023/08/19 02:06:03;;;;;;;;;14.33;14.00;;;;;29.85;100.00;100769.59;5072886;28;47295;-75
2023/08/19 02:08:28;;;;;;;;;16.00;14.33;;;;;29.83;100.00;100787.00;5074977;27;68108;-77
2023/08/19 02:10:54;;;;;;;;;15.33;13.67;;;;;29.80;100.00;100781.78;5074041;28;63560;-75
2023/08/19 02:13:19;;;;;;;;;16.00;15.67;;;;;29.79;100.00;100778.19;5075211;28;45419;-74
2023/08/19 02:15:45;;;;;;;;;13.33;13.00;;;;;29.75;100.00;100782.09;5069753;28;61648;-75
2023/08/19 02:18:10;;;;;;;;;16.67;14.33;;;;;29.67;100.00;100779.94;5070607;28;45469;-76
2023/08/19 02:20:35;;;;;;;;;15.33;12.67;;;;;29.65;100.00;100784.59;5074749;28;45122;-74
2023/08/19 02:23:01;;;;;;;;;15.67;15.67;;;;;29.66;100.00;100785.47;5069142;28;45394;-74
2023/08/19 02:25:27;;;;;;;;;13.33;12.67;;;;;29.69;100.00;100785.25;5071067;28;47246;-75
2023/08/19 02:27:52;;;;;;;;;14.00;13.00;;;;;29.69;100.00;100785.25;5069465;28;64870;-75
2023/08/19 02:30:17;;;;;;;;;16.00;16.00;;;;;29.69;100.00;100788.84;5069090;28;55539;-74
2023/08/19 02:32:43;;;;;;;;;14.00;14.00;;;;;29.71;100.00;100792.31;5071451;28;45338;-75
2023/08/19 02:35:10;;;;;;;;;14.33;13.33;;;;;29.69;100.00;100805.19;5069302;28;68908;-76
2023/08/19 02:37:35;;;;;;;;;13.33;12.00;;;;;29.70;100.00;100800.59;5072580;28;45334;-75
2023/08/19 02:40:01;;;;;;;;;11.00;10.67;;;;;29.67;100.00;100796.25;5072213;28;45517;-74
2023/08/19 02:42:26;;;;;;;;;17.00;14.33;;;;;29.67;100.00;100800.81;5073956;28;63164;-76
2023/08/19 02:44:51;;;;;;;;;13.67;13.00;;;;;29.65;100.00;100798.19;5075193;28;46524;-76
2023/08/19 02:47:17;;;;;;;;;15.00;15.00;;;;;29.67;100.00;100811.69;5069485;28;64697;-75
2023/08/19 02:49:43;;;;;;;;;15.67;15.67;;;;;29.56;100.00;100822.44;5067856;28;64541;-75
2023/08/19 02:52:09;;;;;;;;;14.33;14.33;;;;;29.48;100.00;100828.38;5071105;28;45640;-75
2023/08/19 02:54:34;;;;;;;;;18.00;13.00;;;;;29.45;100.00;100832.16;5062199;28;47281;-74
2023/08/19 02:56:59;;;;;;;;;15.00;14.00;;;;;29.44;100.00;100835.88;5073378;28;45423;-75
2023/08/19 02:59:25;;;;;;;;;14.00;13.33;;;;;29.46;100.00;100830.34;5066962;28;66023;-75
2023/08/19 03:01:50;;;;;;;;;14.33;13.00;;;;;29.36;100.00;100831.94;5069908;28;58624;-75
2023/08/19 03:04:15;;;;;;;;;14.00;14.00;;;;;29.30;100.00;100835.97;5071848;28;69008;-76
2023/08/19 03:06:41;;;;;;;;;15.00;15.00;;;;;29.31;100.00;100840.41;5073141;28;67263;-74
2023/08/19 03:09:06;;;;;;;;;13.00;13.00;;;;;29.27;100.00;100829.84;5075028;27;45443;-74
2023/08/19 03:11:32;;;;;;;;;16.67;14.33;;;;;29.17;100.00;100835.88;5072830;28;45640;-74
2023/08/19 03:13:57;;;;;;;;;14.33;12.33;;;;;29.14;100.00;100836.09;5075367;28;46359;-75
2023/08/19 03:16:23;;;;;;;;;12.00;12.00;;;;;29.10;100.00;100850.00;5071821;28;59288;-74
2023/08/19 03:18:48;;;;;;;;;15.00;12.67;;;;;29.06;100.00;100851.19;5068283;28;58715;-76
2023/08/19 03:21:13;;;;;;;;;15.67;15.67;;;;;29.11;100.00;100849.91;5073144;28;59623;-74
2023/08/19 03:23:39;;;;;;;;;15.00;13.67;;;;;29.04;100.00;100861.28;5068539;28;55272;-75
2023/08/19 03:26:04;;;;;;;;;12.33;12.33;;;;;29.05;100.00;100855.75;5073835;28;67911;-76
2023/08/19 03:28:29;;;;;;;;;13.33;13.00;;;;;29.01;100.00;100851.47;5069051;28;65630;-74
2023/08/19 03:30:55;;;;;;;;;14.33;12.33;;;;;29.02;100.00;100860.50;5072752;28;56359;-75
2023/08/19 03:33:20;;;;;;;;;14.00;13.00;;;;;28.95;100.00;100858.19;5068921;28;47288;-74
2023/08/19 03:35:46;;;;;;;;;15.00;13.67;;;;;28.94;100.00;100863.72;5073183;28;45363;-75
2023/08/19 03:38:12;;;;;;;;;14.67;13.67;;;;;28.91;100.00;100862.03;5067448;28;45277;-75
2023/08/19 03:40:38;;;;;;;;;13.33;13.33;;;;;28.91;100.00;100866.59;5077733;28;45480;-75
2023/08/19 03:43:03;;;;;;;;;17.33;14.33;;;;;28.87;100.00;100867.78;5076960;28;46481;-76
2023/08/19 03:45:30;;;;;;;;;14.00;12.00;;;;;28.90;100.00;100871.16;5073062;28;45269;-75
2023/08/19 03:47:55;;;;;;;;;10.67;10.67;;;;;28.82;100.00;100875.38;5074093;28;45231;-75
2023/08/19 03:50:20;;;;;;;;;10.33;10.33;;;;;28.80;100.00;100875.44;5069693;28;57276;-76
2023/08/19 03:52:46;;;;;;;;;11.33;11.33;;;;;28.75;100.00;100874.88;5070578;28;68573;-75
2023/08/19 03:55:11;;;;;;;;;12.00;11.67;;;;;28.73;100.00;100894.97;5071973;28;45411;-75
2023/08/19 03:57:36;;;;;;;;;11.67;10.33;;;;;28.70;100.00;100890.59;5075506;28;65358;-75
2023/08/19 04:00:02;;;;;;;;;13.00;11.33;;;;;28.69;100.00;100900.59;5072865;28;61567;-75
2023/08/19 04:02:27;;;;;;;;;10.00;10.00;;;;;28.67;100.00;100901.69;5069339;28;47382;-75
2023/08/19 04:04:58;;;;;;;;;11.67;10.33;;;;;28.65;100.00;100901.75;5071401;28;65048;-74
2023/08/19 04:07:23;;;;;;;;;9.00;9.00;;;;;28.66;100.00;100905.38;5074393;28;45459;-75
2023/08/19 04:09:48;;;;;;;;;9.00;8.00;;;;;28.64;100.00;100905.44;5075550;28;54870;-75
2023/08/19 04:12:14;;;;;;;;;9.00;9.00;;;;;28.58;100.00;100911.28;5074536;28;68847;-75
2023/08/19 04:14:39;;;;;;;;;7.67;7.67;;;;;28.54;100.00;100914.28;5074760;28;67639;-74
2023/08/19 04:17:04;;;;;;;;;9.00;9.00;;;;;28.54;100.00;100917.00;5076846;28;65442;-74
2023/08/19 04:19:30;;;;;;;;;9.00;9.00;;;;;28.54;100.00;100927.88;5076039;28;62490;-74
2023/08/19 04:21:56;;;;;;;;;11.67;10.00;;;;;28.45;100.00;100935.63;5068483;28;46818;-75
2023/08/19 04:24:21;;;;;;;;;7.33;7.33;;;;;28.27;100.00;100938.56;5072645;28;45386;-75
2023/08/19 04:26:46;;;;;;;;;10.67;10.00;;;;;28.37;100.00;100943.38;5067183;28;45473;-75
2023/08/19 04:29:12;;;;;;;;;10.00;9.33;;;;;28.36;100.00;100943.47;5072956;28;45703;-74
2023/08/19 04:31:37;;;;;;;;;9.00;9.00;;;;;28.24;100.00;100947.78;5068209;28;47735;-74
2023/08/19 04:34:03;;;;;;;;;10.33;8.33;;;;;28.37;100.00;100954.22;5072414;28;66556;-75
2023/08/19 04:36:29;;;;;;;;;13.00;10.00;;;;;28.41;100.00;100954.94;5070808;28;45606;-74
2023/08/19 04:38:54;;;;;;;;;10.00;9.00;;;;;28.45;100.00;100953.78;5072420;28;45550;-75
2023/08/19 04:41:20;;;;;;;;;8.00;8.00;;;;;28.47;100.00;100954.53;5077130;28;46923;-75
2023/08/19 04:43:46;;;;;;;;;9.00;8.00;;;;;28.36;100.00;100957.06;5074103;28;45415;-74
2023/08/19 04:46:12;;;;;;;;;9.00;7.67;;;;;28.23;100.00;100972.28;5075815;28;45310;-75
2023/08/19 04:48:38;;;;;;;;;4.00;4.00;;;;;28.14;100.00;100969.19;5075908;27;45497;-75
2023/08/19 04:51:04;;;;;;;;;8.00;8.00;;;;;28.13;100.00;100980.16;5076663;28;47319;-74
2023/08/19 04:53:30;;;;;;;;;6.00;4.67;;;;;28.10;100.00;100983.91;5075521;28;45454;-75
2023/08/19 04:56:01;;;;;;;;;6.33;6.33;;;;;28.08;100.00;100987.69;5073055;27;45505;-75
2023/08/19 04:58:27;;;;;;;;;7.67;7.67;;;;;28.08;100.00;100994.00;5077312;28;45300;-76
2023/08/19 05:00:52;;;;;;;;;6.33;6.33;;;;;28.03;100.00;100995.22;5072765;28;70413;-74
2023/08/19 05:03:17;;;;;;;;;7.33;6.00;;;;;27.98;100.00;100995.50;5073695;28;64467;-75
2023/08/19 05:05:43;;;;;;;;;6.33;5.00;;;;;27.99;100.00;101001.81;5071622;28;59353;-74
2023/08/19 05:08:08;;;;;;;;;6.33;5.00;;;;;28.00;100.00;101009.84;5073711;28;60213;-75
2023/08/19 05:10:34;;;;;;;;;8.67;5.00;;;;;28.00;100.00;101009.84;5071974;28;66176;-75
2023/08/19 05:13:00;;;;;;;;;7.00;7.00;;;;;28.00;100.00;101008.97;5070185;28;45305;-74
2023/08/19 05:15:25;;;;;;;;;5.00;5.00;;;;;28.01;100.00;101016.16;5072984;28;47920;-75
2023/08/19 05:17:50;;;;;;;;;3.00;3.00;;;;;27.98;100.00;101017.22;5072419;28;45434;-74
2023/08/19 05:20:16;;;;;;;;;5.00;4.00;;;;;27.98;100.00;101016.34;5074382;28;64197;-75
2023/08/19 05:22:41;;;;;;;;;6.00;4.33;;;;;27.94;100.00;101010.22;5075357;28;68466;-75
2023/08/19 05:25:08;;;;;;;;;4.67;4.67;;;;;27.91;100.00;101019.41;5072699;28;45479;-74
2023/08/19 05:27:34;;;;;;;;;4.33;4.00;;;;;27.88;100.00;101014.16;5070870;28;45521;-74
2023/08/19 05:29:59;;;;;;;;;4.00;4.00;;;;;27.86;100.00;101026.09;5072457;28;46716;-74
2023/08/19 05:32:24;;;;;;;;;9.00;5.00;;;;;27.87;100.00;101031.41;5069847;28;62529;-75
2023/08/19 05:34:49;;;;;;;;;4.67;4.00;;;;;27.86;100.00;101035.09;5074308;28;61493;-74
2023/08/19 05:37:15;;;;;;;;;3.67;3.67;;;;;27.84;100.00;101030.72;5068910;28;45228;-75
2023/08/19 05:39:40;;;;;;;;;4.00;4.00;;;;;27.85;100.00;101040.59;5076892;28;46641;-75
2023/08/19 05:42:06;;;;;;;;;4.00;4.00;;;;;27.85;100.00;101038.75;5070296;28;69030;-75
2023/08/19 05:44:31;;;;;;;;;5.00;5.00;;;;;27.90;100.00;101041.19;5074626;28;45349;-74
2023/08/19 05:46:57;;;;;;;;;5.00;5.00;;;;;27.94;100.00;101043.66;5070730;28;54777;-75
2023/08/19 05:49:22;;;;;;;;;4.00;4.00;;;;;27.96;100.00;101046.28;5071942;28;46604;-75
2023/08/19 05:51:48;;;;;;;;;3.33;3.33;;;;;28.00;100.00;101046.97;5073117;28;45528;-75
2023/08/19 05:54:13;;;;;;;;;4.00;3.67;;;;;28.00;100.00;101044.25;5075119;28;45513;-75
2023/08/19 05:56:39;;;;;;;;;2.33;2.33;;;;;28.05;100.00;101048.47;5075565;27;45219;-75
2023/08/19 05:59:04;;;;;;;;;4.00;4.00;;;;;28.15;100.00;101041.53;5073130;28;69067;-74
2023/08/19 06:01:29;;;;;;;;;4.00;4.00;;;;;28.22;100.00;101043.88;5068264;28;67884;-75
2023/08/19 06:03:55;;;;;;;;;4.00;4.00;;;;;28.30;100.00;101060.59;5076425;28;45307;-74
2023/08/19 06:06:20;;;;;;;;;3.00;3.00;;;;;28.35;100.00;101066.66;5069377;28;45569;-74
2023/08/19 06:08:45;;;;;;;;;5.67;4.00;;;;;28.37;100.00;101062.00;5071661;28;49610;-75
2023/08/19 06:11:11;;;;;;;;;4.33;3.00;;;;;28.44;100.00;101052.50;5070952;28;45359;-76
2023/08/19 06:13:36;;;;;;;;;3.00;3.00;;;;;28.53;100.00;101067.41;5072954;28;49804;-75
2023/08/19 06:16:03;;;;;;;;;4.00;4.00;;;;;28.43;100.00;101072.50;5073673;28;45207;-78
2023/08/19 06:18:29;;;;;;;;;3.67;3.67;;;;;28.56;100.00;101087.13;5072029;28;47697;-78
2023/08/19 06:20:55;;;;;;;;;3.00;3.00;;;;;28.58;100.00;101087.88;5075035;28;45520;-75
2023/08/19 06:23:20;;;;;;;;;3.00;3.00;;;;;28.62;100.00;101104.91;5070067;28;45417;-79
2023/08/19 06:25:49;;;;;;;;;5.00;3.33;;;;;28.55;100.00;101103.50;5064358;28;45580;-77
2023/08/19 06:28:16;;;;;;;;;5.00;4.00;;;;;28.53;100.00;101110.88;5075660;28;45740;-77
2023/08/19 06:30:41;;;;;;;;;3.00;3.00;;;;;28.59;100.00;101122.25;5075856;28;45565;-76
2023/08/19 06:33:07;;;;;;;;;3.00;3.00;;;;;28.51;100.00;101139.97;5075189;28;45445;-76
2023/08/19 06:35:33;;;;;;;;;2.67;2.67;;;;;28.44;100.00;101134.00;5074666;28;45534;-78
2023/08/19 06:38:06;;;;;;;;;3.33;2.33;;;;;28.38;100.00;101135.25;5055464;28;45695;-80
2023/08/19 06:40:34;;;;;;;;;3.00;3.00;;;;;28.30;100.00;101132.09;5059230;28;45420;-79
2023/08/19 06:43:00;;;;;;;;;5.67;3.33;;;;;28.36;100.00;101125.44;5057395;28;45528;-79
2023/08/19 06:45:26;;;;;;;;;3.00;3.00;;;;;28.34;100.00;101140.97;5059904;28;45542;-75
2023/08/19 06:47:53;;;;;;;;;5.00;3.00;;;;;28.25;100.00;101165.91;5076521;28;45518;-78
2023/08/19 06:50:19;;;;;;;;;4.33;4.33;;;;;28.17;100.00;101153.63;5075032;28;45580;-79
2023/08/19 06:52:44;;;;;;;;;4.33;4.33;;;;;28.16;100.00;101142.88;5074647;28;45523;-84
2023/08/19 06:55:10;;;;;;;;;4.00;4.00;;;;;28.11;100.00;101137.69;5052124;28;45249;-77
2023/08/19 06:57:39;;;;;;;;;2.67;2.67;;;;;28.15;100.00;101150.13;5074646;28;47496;-76
2023/08/19 07:00:11;;;;;;;;;6.00;4.00;;;;;28.18;100.00;101154.53;5075596;28;45363;-77
2023/08/19 07:02:38;;;;;;;;;3.00;3.00;;;;;28.18;100.00;101166.25;5055942;28;45671;-77
2023/08/19 07:05:13;;;;;;;;;5.00;5.00;;;;;28.26;100.00;101171.25;5054818;28;45477;-78
2023/08/19 07:07:40;;;;;;;;;3.33;3.33;;;;;28.20;100.00;101163.44;5053352;28;46605;-78
2023/08/19 07:10:08;;;;;;;;;2.67;2.67;;;;;28.28;100.00;101158.44;5055205;28;45443;-77
2023/08/19 07:12:33;;;;;;;;;5.00;5.00;;;;;28.13;100.00;101160.22;5073372;28;45419;-77
2023/08/19 07:14:59;;;;;;;;;5.33;5.33;;;;;28.12;100.00;101166.59;5057485;28;58995;-76
2023/08/19 07:17:28;;;;;;;;;4.67;4.67;;;;;28.18;100.00;101155.41;5073656;28;46290;-79
2023/08/19 07:19:54;;;;;;;;;5.00;5.00;;;;;28.25;100.00;101149.63;5050045;28;67252;-77
2023/08/19 07:22:21;;;;;;;;;6.67;5.00;;;;;28.33;100.00;101163.63;5055983;28;46435;-79
2023/08/19 07:24:47;;;;;;;;;6.33;5.00;;;;;28.37;100.00;101166.09;5055601;28;45432;-78
2023/08/19 07:27:14;;;;;;;;;9.00;5.00;;;;;28.39;100.00;101171.44;5077727;28;46157;-78
2023/08/19 07:29:40;;;;;;;;;4.67;4.67;;;;;28.41;100.00;101158.66;5057191;28;45423;-75
2023/08/19 07:32:07;;;;;;;;;7.00;4.33;;;;;28.46;100.00;101170.13;5077946;28;46573;-78
2023/08/19 07:34:32;;;;;;;;;5.00;5.00;;;;;28.46;100.00;101172.84;5078376;28;45584;-78
2023/08/19 07:36:57;;;;;;;;;6.00;5.00;;;;;28.44;100.00;101189.25;5077368;28;67635;-80
2023/08/19 07:39:23;;;;;;;;;6.67;5.00;;;;;28.41;100.00;101185.81;5056029;28;63970;-84
2023/08/19 07:41:48;;;;;;;;;5.67;5.00;;;;;28.36;100.00;101201.50;5056934;28;46071;-76
2023/08/19 07:44:14;;;;;;;;;6.67;5.00;;;;;28.47;100.00;101214.47;5059501;22;46361;-76
2023/08/19 07:46:39;;;;;;;;;4.33;4.33;;;;;28.33;100.00;101228.81;5077714;28;46637;-73
2023/08/19 07:49:04;;;;;;;;;5.67;5.67;;;;;28.22;100.00;101214.94;5076285;28;64555;-72
2023/08/19 07:51:30;;;;;;;;;3.00;3.00;;;;;28.15;100.00;101198.13;5077413;28;63539;-72
2023/08/19 07:53:55;;;;;;;;;7.00;6.00;;;;;28.13;100.00;101219.09;5051948;27;63085;-72
2023/08/19 07:56:20;;;;;;;;;5.00;5.00;;;;;28.04;100.00;101241.31;5076112;28;67010;-74
2023/08/19 07:58:46;;;;;;;;;6.00;5.00;;;;;27.93;100.00;101253.63;5074195;28;47437;-72
2023/08/19 08:01:11;;;;;;;;;6.33;4.00;;;;;27.86;100.00;101260.38;5072780;28;52011;-73
2023/08/19 08:03:40;;;;;;;;;3.00;3.00;;;;;27.81;100.00;101248.88;5077990;28;45415;-73
2023/08/19 08:06:05;;;;;;;;;5.00;3.00;;;;;27.76;100.00;101241.94;5072666;28;45794;-75
2023/08/19 08:08:30;;;;;;;;;6.00;5.00;;;;;27.74;100.00;101252.88;5076651;28;67543;-75
2023/08/19 08:10:56;;;;;;;;;4.00;4.00;;;;;27.68;100.00;101262.19;5075672;28;45479;-74
2023/08/19 08:13:21;;;;;;;;;4.00;3.00;;;;;27.62;100.00;101273.38;5077231;28;60207;-73
2023/08/19 08:15:47;;;;;;;;;4.00;4.00;;;;;27.60;100.00;101286.16;5076838;28;46358;-73
2023/08/19 08:18:13;;;;;;;;;3.33;3.33;;;;;27.59;100.00;101325.09;5072877;28;45469;-73
2023/08/19 08:20:39;;;;;;;;;5.33;4.00;;;;;27.38;100.00;101318.06;5073275;28;45489;-73
2023/08/19 08:23:04;;;;;;;;;4.00;4.00;;;;;27.32;100.00;101345.47;5074486;28;45436;-75
2023/08/19 08:25:29;;;;;;;;;5.00;5.00;;;;;27.26;100.00;101360.22;5076165;28;70627;-73
2023/08/19 08:27:55;;;;;;;;;3.33;3.33;;;;;27.19;100.00;101355.19;5074409;28;45466;-73
2023/08/19 08:30:20;;;;;;;;;4.33;3.00;;;;;27.26;100.00;101340.38;5075706;28;62189;-73
2023/08/19 08:32:46;;;;;;;;;3.67;3.67;;;;;27.25;100.00;101335.91;5075631;28;60868;-74
2023/08/19 08:35:11;;;;;;;;;3.33;3.33;;;;;27.27;100.00;101315.91;5076506;28;46045;-74
2023/08/19 08:37:36;;;;;;;;;5.33;3.00;;;;;27.42;100.00;101316.94;5074934;28;45530;-73
2023/08/19 08:40:03;;;;;;;;;5.00;4.00;;;;;27.45;100.00;101314.06;5075069;28;63972;-74
2023/08/19 08:42:29;;;;;;;;;5.67;4.00;;;;;27.48;100.00;101308.47;5078272;28;45464;-73
2023/08/19 08:44:54;;;;;;;;;6.00;3.00;;;;;27.27;100.00;101325.84;5041560;28;46465;-73
2023/08/19 08:47:20;;;;;;;;;4.33;4.33;;;;;27.29;100.00;101327.53;5056342;28;45445;-73
2023/08/19 08:49:46;;;;;;;;;4.00;4.00;;;;;27.37;100.00;101330.72;5076670;28;45596;-73
2023/08/19 08:52:12;;;;;;;;;4.00;3.00;;;;;27.42;100.00;101353.06;5065461;28;45655;-75
2023/08/19 08:54:39;;;;;;;;;5.00;3.00;;;;;27.47;100.00;101369.13;5065490;27;46468;-74
2023/08/19 08:57:04;;;;;;;;;3.33;1.00;;;;;27.39;100.00;101358.66;5040023;28;45577;-74
2023/08/19 08:59:30;;;;;;;;;4.00;2.00;;;;;27.31;100.00;101341.00;5064285;28;45434;-74
2023/08/19 09:01:56;;;;;;;;;2.00;2.00;;;;;27.39;100.00;101323.41;5057815;28;61212;-75
2023/08/19 09:04:23;;;;;;;;;4.00;3.33;;;;;27.43;100.00;101313.25;5055994;28;63685;-75
2023/08/19 09:06:56;;;;;;;;;3.00;2.67;;;;;27.34;100.00;101338.16;5062964;28;45507;-74
2023/08/19 09:09:22;;;;;;;;;3.33;3.00;;;;;27.33;100.00;101342.72;5042235;27;45738;-72
2023/08/19 09:11:48;;;;;;;;;4.33;3.00;;;;;27.11;100.00;101342.91;5067289;27;45703;-72
2023/08/19 09:14:21;;;;;;;;;3.33;3.33;;;;;27.03;100.00;101345.09;5031627;28;48351;-74
2023/08/19 09:16:46;;;;;;;;;3.33;3.33;;;;;26.96;100.00;101384.28;5067688;27;45901;-71
2023/08/19 09:19:12;;;;;;;;;4.33;3.00;;;;;26.94;100.00;101388.88;5074820;27;45493;-73
2023/08/19 09:21:38;;;;;;;;;4.00;4.00;;;;;26.92;100.00;101390.81;5069289;27;45441;-73
2023/08/19 09:24:03;;;;;;;;;2.67;2.67;;;;;26.90;100.00;101393.59;5049134;28;69256;-74
2023/08/19 09:26:29;;;;;;;;;4.00;4.00;;;;;26.89;100.00;101378.28;5067694;28;45473;-75
2023/08/19 09:28:57;;;;;;;;;4.00;4.00;;;;;26.88;100.00;101424.41;5066779;28;45642;-73
2023/08/19 09:31:24;;;;;;;;;6.00;4.00;;;;;26.83;100.00;101438.19;5069614;28;45504;-73
2023/08/19 09:33:50;;;;;;;;;6.00;5.67;;;;;26.74;100.00;101465.75;5068550;28;47509;-73
2023/08/19 09:36:15;;;;;;;;;4.00;4.00;;;;;26.66;100.00;101483.28;5068679;28;45490;-75
2023/08/19 09:38:42;;;;;;;;;4.33;4.33;;;;;26.59;100.00;101472.72;5069237;28;45351;-75
2023/08/19 09:41:07;;;;;;;;;5.33;4.00;;;;;26.58;100.00;101433.06;5050408;28;45540;-73
2023/08/19 09:43:37;;;;;;;;;6.33;4.67;;;;;26.60;100.00;101458.22;5067697;28;46496;-73
2023/08/19 09:46:03;;;;;;;;;7.00;5.00;;;;;26.58;100.00;101441.19;5064978;28;45518;-75
2023/08/19 09:48:28;;;;;;;;;5.67;4.00;;;;;26.62;100.00;101461.75;5065591;28;45871;-77
2023/08/19 09:50:53;;;;;;;;;4.00;4.00;;;;;26.63;100.00;101479.78;5062625;28;49776;-76
2023/08/19 09:53:19;;;;;;;;;4.67;4.00;;;;;26.61;100.00;101486.19;5067263;28;60055;-74
2023/08/19 09:55:46;;;;;;;;;6.33;6.00;;;;;26.61;100.00;101478.06;5063952;28;45664;-76
2023/08/19 09:58:11;;;;;;;;;4.67;4.67;;;;;26.57;100.00;101488.16;5067746;28;45788;-75
2023/08/19 10:00:37;;;;;;;;;5.33;4.33;;;;;26.50;100.00;101483.97;5066981;28;45457;-75
2023/08/19 10:03:03;;;;;;;;;5.67;4.00;;;;;26.44;100.00;101483.38;5055842;28;46014;-74
2023/08/19 10:05:32;;;;;;;;;10.33;7.67;;;;;26.37;100.00;101496.28;5061128;28;45511;-75
2023/08/19 10:08:03;;;;;;;;;8.67;7.00;;;;;26.33;100.00;101479.28;5040071;28;45504;-73
2023/08/19 10:10:32;;;;;;;;;5.00;5.00;;;;;26.29;100.00;101474.06;5066398;28;45424;-76
2023/08/19 10:12:57;;;;;;;;;6.00;5.00;;;;;26.32;100.00;101479.38;5047255;28;46407;-72
2023/08/19 10:15:26;;;;;;;;;8.00;6.00;;;;;26.35;100.00;101487.34;5044929;28;49099;-73
2023/08/19 10:17:54;;;;;;;;;5.33;5.33;;;;;26.32;100.00;101499.19;5062992;28;45762;-72
2023/08/19 10:20:24;;;;;;;;;9.67;8.00;;;;;26.35;100.00;101492.75;5049073;28;45804;-73
2023/08/19 10:22:52;;;;;;;;;5.00;5.00;;;;;26.45;100.00;101490.53;5049820;28;45714;-74
2023/08/19 10:25:18;;;;;;;;;6.33;5.67;;;;;26.62;100.00;101483.41;5044127;28;45777;-74
2023/08/19 10:27:44;;;;;;;;;7.00;4.00;;;;;26.77;100.00;101491.78;5067306;28;45966;-74
2023/08/19 10:30:31;;;;;;;;;5.00;5.00;;;;;26.88;100.00;101484.91;5060776;28;45987;-76
2023/08/19 10:33:07;;;;;;;;;7.00;5.67;;;;;27.05;100.00;101492.25;5064383;28;47128;-76
2023/08/19 10:36:00;;;;;;;;;7.00;5.00;;;;;27.20;100.00;101487.09;5036159;28;45417;-76
2023/08/19 10:38:45;;;;;;;;;4.00;4.00;;;;;27.34;100.00;101479.19;5065738;28;45854;-75
2023/08/19 10:41:29;;;;;;;;;6.67;6.00;;;;;27.40;100.00;101474.34;5040925;28;45803;-72
2023/08/19 10:44:02;;;;;;;;;7.00;7.00;;;;;27.50;100.00;101484.75;5063195;28;45749;-73
2023/08/19 10:46:37;;;;;;;;;6.33;5.67;;;;;27.57;100.00;101492.50;5060518;28;45518;-74
2023/08/19 10:49:13;;;;;;;;;5.33;5.00;;;;;27.69;100.00;101477.41;5066715;28;45492;-74
2023/08/19 10:52:03;;;;;;;;;7.67;6.00;;;;;27.80;100.00;101476.91;5065347;28;47353;-74
2023/08/19 10:54:38;;;;;;;;;6.67;5.67;;;;;27.96;100.00;101472.47;5069469;28;46700;-74
2023/08/19 10:57:09;;;;;;;;;6.00;6.00;;;;;28.22;100.00;101475.66;5069958;28;45491;-74
2023/08/19 10:59:36;;;;;;;;;4.00;4.00;;;;;28.41;100.00;101481.91;5066887;28;45501;-74
2023/08/19 11:02:02;;;;;;;;;5.00;3.33;;;;;28.47;100.00;101453.53;5066220;28;46581;-73
2023/08/19 11:04:27;;;;;;;;;4.67;4.67;;;;;28.61;100.00;101459.13;5063047;28;47224;-72
2023/08/19 11:06:53;;;;;;;;;5.00;3.67;;;;;28.77;100.00;101465.47;5064887;28;66685;-74
2023/08/19 11:09:19;;;;;;;;;5.00;3.00;;;;;28.94;100.00;101472.72;5068495;28;45672;-75